Hallein, Austria
Current Conditions -  °F | °C
As of 8:20 AM on Saturday 25 Oct 2014 (Local Time) from LOWS Reporting Station
Light Fog Light Fog  
Wind Chill: 34°   Ceiling: Unl
Heat Index: 34°   Visibility: 6mi
Dew Point: 34°   Wind: 3mph
Humidity: 100%   Direction: 320°NW
Pressure: 30.15"   Gusts: NA
Location:  47.68°N, 13.11°E
Report Text: LOWS 250620Z 32003KT 9999 0500N R15/0400N R33/P1500N BCFG FEW001 01/01 Q1021 TEMPO 0400 BCFG
Loading
Personal Weather Stations






























Interactive Weather Map
Tropical Storm Tracking
New forecast layout! Learn more

10-Day Weather Forecast

Advertisements
Track Severe Weather on mobile